createdAt,value
2022-08-08T00:00:52.415Z,59.92
2022-08-08T00:04:06.430Z,59.83
2022-08-08T00:06:52.337Z,59.64
2022-08-08T00:09:33.003Z,60.03
2022-08-08T00:12:09.462Z,60.06
2022-08-08T00:15:00.236Z,59.96
2022-08-08T00:18:03.091Z,60.01
2022-08-08T00:20:44.661Z,60.68
2022-08-08T00:23:47.499Z,60.88
2022-08-08T00:26:29.539Z,61.31
2022-08-08T00:29:17.280Z,61.33
2022-08-08T00:32:20.134Z,61.95
2022-08-08T00:35:20.360Z,61.96
2022-08-08T00:38:32.463Z,62.80
2022-08-08T00:42:08.110Z,63.19
2022-08-08T00:45:21.781Z,63.44
2022-08-08T00:48:39.620Z,63.98
2022-08-08T00:51:18.166Z,64.68
2022-08-08T00:54:30.005Z,65.02
2022-08-08T00:57:19.894Z,64.95
2022-08-08T01:00:07.739Z,65.44
2022-08-08T01:03:58.284Z,65.95
2022-08-08T01:06:13.949Z,66.13
2022-08-08T01:08:58.213Z,66.45
2022-08-08T01:11:37.634Z,66.53
2022-08-08T01:14:13.660Z,66.84
2022-08-08T01:17:12.154Z,67.01
2022-08-08T01:20:18.300Z,67.19
2022-08-08T01:24:03.133Z,67.66
2022-08-08T01:27:07.123Z,68.14
2022-08-08T01:30:15.882Z,68.22
2022-08-08T01:33:27.816Z,68.38
2022-08-08T01:36:22.982Z,68.62
2022-08-08T01:39:23.456Z,68.58
2022-08-08T01:42:01.914Z,68.99
2022-08-08T01:45:23.384Z,69.05
2022-08-08T01:48:16.976Z,69.28
2022-08-08T01:51:55.281Z,69.83
2022-08-08T01:55:26.797Z,70.18
2022-08-08T01:57:21.035Z,70.50
2022-08-08T02:00:07.047Z,70.99
2022-08-08T02:03:49.221Z,71.35
2022-08-08T02:06:32.837Z,71.45
2022-08-08T02:10:11.431Z,72.00
2022-08-08T02:12:49.668Z,72.46
2022-08-08T02:15:45.178Z,72.61
2022-08-08T02:18:32.957Z,72.82
2022-08-08T02:21:37.822Z,73.28
2022-08-08T02:24:26.454Z,73.55
2022-08-08T02:27:12.793Z,74.00
2022-08-08T02:30:02.205Z,74.21
2022-08-08T02:32:49.067Z,74.61
2022-08-08T02:36:03.715Z,74.79
2022-08-08T02:38:44.819Z,74.89
2022-08-08T02:42:04.025Z,75.12
2022-08-08T02:44:57.911Z,75.47
2022-08-08T02:47:52.206Z,75.88
2022-08-08T02:50:41.330Z,75.91
2022-08-08T02:53:47.598Z,76.38
2022-08-08T02:56:46.053Z,76.74
2022-08-08T03:00:30.995Z,76.91
2022-08-08T03:05:00.470Z,77.51
2022-08-08T03:06:34.397Z,78.01
2022-08-08T03:09:10.032Z,78.27
2022-08-08T03:12:02.859Z,78.68
2022-08-08T03:15:58.111Z,78.79
2022-08-08T03:18:00.111Z,79.32
2022-08-08T03:20:47.048Z,79.50
2022-08-08T03:23:22.291Z,79.89
2022-08-08T03:25:51.031Z,80.06
2022-08-08T03:28:35.728Z,80.39
2022-08-08T03:31:25.318Z,80.39
2022-08-08T03:33:56.316Z,80.72
2022-08-08T03:36:30.318Z,80.82
2022-08-08T03:39:07.683Z,80.96
2022-08-08T03:42:27.658Z,81.09
2022-08-08T03:44:35.467Z,81.26
2022-08-08T03:47:14.259Z,81.35
2022-08-08T03:49:58.453Z,81.46
2022-08-08T03:52:34.115Z,81.67
2022-08-08T03:55:19.675Z,81.82
2022-08-08T03:58:36.459Z,81.99
2022-08-08T04:00:56.490Z,82.28
2022-08-08T04:03:58.179Z,82.45
2022-08-08T04:06:22.538Z,82.64
2022-08-08T04:08:49.711Z,82.92
2022-08-08T04:11:23.692Z,83.11
2022-08-08T04:14:17.285Z,83.26
2022-08-08T04:16:41.547Z,83.54
2022-08-08T04:19:23.847Z,83.71
2022-08-08T04:21:57.130Z,83.70
2022-08-08T04:24:29.420Z,83.88
2022-08-08T04:26:59.441Z,84.07
2022-08-08T04:29:33.448Z,84.05
2022-08-08T04:32:08.295Z,84.29
2022-08-08T04:34:42.821Z,84.31
2022-08-08T04:37:16.555Z,84.44
2022-08-08T04:40:03.480Z,84.54
2022-08-08T04:42:34.054Z,84.55
2022-08-08T04:45:05.114Z,84.77
2022-08-08T04:47:36.633Z,84.96
2022-08-08T04:50:14.341Z,85.17
2022-08-08T04:53:00.988Z,85.19
2022-08-08T04:55:47.044Z,85.48
2022-08-08T04:58:17.447Z,85.61
2022-08-08T05:00:48.274Z,85.67
2022-08-08T05:03:18.801Z,85.64
2022-08-08T05:06:13.046Z,85.70
2022-08-08T05:08:51.631Z,85.84
2022-08-08T05:11:24.139Z,85.78
2022-08-08T05:13:58.732Z,85.71
2022-08-08T05:16:47.930Z,85.75
2022-08-08T05:20:09.313Z,85.36
2022-08-08T05:22:08.161Z,85.22
2022-08-08T05:24:37.634Z,84.94
2022-08-08T05:27:05.391Z,84.67
2022-08-08T05:29:35.960Z,84.22
2022-08-08T05:32:07.570Z,83.76
2022-08-08T05:34:36.686Z,83.42
2022-08-08T05:37:15.745Z,82.87
2022-08-08T05:39:51.036Z,82.65
2022-08-08T05:42:31.640Z,82.17
2022-08-08T05:45:24.389Z,81.81
2022-08-08T05:48:00.015Z,81.62
2022-08-08T05:50:33.466Z,81.38
2022-08-08T05:53:54.861Z,81.31
2022-08-08T05:56:10.287Z,80.92
2022-08-08T05:58:39.713Z,80.72
2022-08-08T06:01:55.492Z,80.23
2022-08-08T06:04:22.569Z,79.88
2022-08-08T06:06:52.032Z,79.31
2022-08-08T06:10:00.440Z,78.89
2022-08-08T06:12:31.017Z,78.59
2022-08-08T06:15:03.005Z,77.69
2022-08-08T06:17:51.296Z,77.17
2022-08-08T06:20:21.162Z,77.31
2022-08-08T06:22:50.048Z,77.11
2022-08-08T06:25:19.465Z,77.09
2022-08-08T06:28:13.229Z,76.59
2022-08-08T06:30:44.468Z,76.48
2022-08-08T06:33:15.101Z,76.59
2022-08-08T06:36:07.522Z,76.71
2022-08-08T06:38:39.482Z,76.62
2022-08-08T06:41:13.068Z,76.56
2022-08-08T06:43:56.886Z,76.53
2022-08-08T06:46:30.079Z,76.32
2022-08-08T06:48:59.629Z,76.11
2022-08-08T06:51:47.077Z,76.22
2022-08-08T06:54:13.970Z,75.82
2022-08-08T06:56:41.792Z,75.84
2022-08-08T06:59:18.736Z,75.59
2022-08-08T07:02:26.422Z,74.83
2022-08-08T07:04:55.859Z,75.01
2022-08-08T07:07:38.773Z,74.97
2022-08-08T07:10:10.583Z,74.20
2022-08-08T07:12:43.273Z,73.99
2022-08-08T07:15:32.673Z,73.22
2022-08-08T07:18:36.516Z,72.33
2022-08-08T07:21:02.179Z,70.86
2022-08-08T07:24:01.363Z,70.26
2022-08-08T07:26:29.122Z,70.49
2022-08-08T07:29:05.274Z,70.69
2022-08-08T07:31:35.278Z,70.22
2022-08-08T07:34:08.775Z,70.07
2022-08-08T07:36:48.332Z,70.39
2022-08-08T07:39:29.727Z,69.93
2022-08-08T07:42:13.280Z,69.69
2022-08-08T07:44:47.728Z,69.69
2022-08-08T07:47:17.938Z,69.03
2022-08-08T07:49:57.485Z,68.57
2022-08-08T07:52:27.229Z,68.26
2022-08-08T07:55:09.468Z,68.02
2022-08-08T07:57:48.418Z,67.38
2022-08-08T08:00:17.379Z,67.08
2022-08-08T08:03:06.565Z,66.62
2022-08-08T08:05:40.384Z,66.09
2022-08-08T08:08:18.892Z,65.66
2022-08-08T08:10:57.107Z,65.39
2022-08-08T08:14:08.135Z,64.22
2022-08-08T08:16:41.410Z,63.79
2022-08-08T08:19:10.175Z,62.44
2022-08-08T08:21:58.452Z,62.55
2022-08-08T08:24:46.468Z,62.39
2022-08-08T08:27:14.007Z,62.37
2022-08-08T08:29:43.296Z,62.03
2022-08-08T08:32:12.247Z,62.25
2022-08-08T08:34:52.207Z,61.61
2022-08-08T08:37:20.414Z,61.76
2022-08-08T08:40:01.469Z,61.99
2022-08-08T08:42:35.758Z,61.63
2022-08-08T08:45:21.664Z,60.96
2022-08-08T08:47:54.157Z,61.65
2022-08-08T08:50:32.860Z,60.70
2022-08-08T08:53:54.525Z,58.16
2022-08-08T08:56:03.733Z,56.61
2022-08-08T08:58:46.954Z,56.07
2022-08-08T09:01:24.659Z,55.94
2022-08-08T09:03:55.447Z,55.88
2022-08-08T09:06:34.128Z,56.59
2022-08-08T09:09:25.824Z,56.76
2022-08-08T09:12:07.645Z,56.47
2022-08-08T09:14:42.319Z,56.18
2022-08-08T09:17:17.303Z,56.28
2022-08-08T09:22:02.631Z,55.26
2022-08-08T09:22:36.026Z,54.82
2022-08-08T09:25:04.948Z,54.54
2022-08-08T09:27:42.130Z,54.21
2022-08-08T09:30:20.202Z,53.65
2022-08-08T09:33:12.705Z,53.18
2022-08-08T09:35:50.073Z,52.65
2022-08-08T09:38:52.028Z,53.17
2022-08-08T09:41:54.770Z,52.56
2022-08-08T09:44:35.430Z,52.71
2022-08-08T09:48:02.267Z,52.06
2022-08-08T09:50:04.700Z,49.95
2022-08-08T09:52:57.503Z,49.97
2022-08-08T09:55:31.659Z,48.82
2022-08-08T09:58:20.187Z,49.90
2022-08-08T10:00:57.457Z,50.32
2022-08-08T10:03:31.530Z,49.49
2022-08-08T10:05:59.441Z,49.93
2022-08-08T10:08:26.207Z,49.26
2022-08-08T10:11:01.230Z,49.97
2022-08-08T10:13:35.560Z,50.00
2022-08-08T10:16:03.719Z,49.49
2022-08-08T10:18:35.889Z,49.87
2022-08-08T10:21:24.800Z,48.77
2022-08-08T10:24:02.688Z,48.41
2022-08-08T10:26:57.310Z,46.88
2022-08-08T10:30:00.231Z,47.37
2022-08-08T10:32:48.299Z,47.20
2022-08-08T10:36:09.754Z,47.26
2022-08-08T10:38:08.547Z,47.34
2022-08-08T10:40:38.065Z,47.18
2022-08-08T10:43:06.425Z,46.94
2022-08-08T10:45:56.711Z,46.14
2022-08-08T10:48:38.872Z,45.13
2022-08-08T10:51:24.477Z,45.22
2022-08-08T10:53:57.704Z,45.36
2022-08-08T10:56:27.870Z,44.49
2022-08-08T10:59:00.501Z,44.63
2022-08-08T11:01:33.516Z,42.87
2022-08-08T11:04:02.499Z,43.25
2022-08-08T11:06:31.403Z,43.45
2022-08-08T11:09:19.986Z,44.49
2022-08-08T11:12:04.717Z,43.46
2022-08-08T11:14:53.323Z,43.69
2022-08-08T11:17:59.630Z,44.05
2022-08-08T11:20:14.618Z,43.29
2022-08-08T11:22:47.850Z,42.66
2022-08-08T11:25:16.508Z,42.24
2022-08-08T11:27:47.068Z,41.88
2022-08-08T11:30:24.555Z,42.09
2022-08-08T11:32:58.232Z,41.33
2022-08-08T11:35:38.607Z,40.16
2022-08-08T11:38:38.480Z,39.24
2022-08-08T11:40:56.483Z,37.51
2022-08-08T11:43:39.233Z,35.78
2022-08-08T11:46:17.603Z,34.71
2022-08-08T11:48:47.100Z,35.03
2022-08-08T11:51:38.818Z,35.34
2022-08-08T11:54:05.005Z,35.02
2022-08-08T11:56:56.614Z,33.49
2022-08-08T11:59:58.591Z,33.36
2022-08-08T12:02:33.770Z,31.71
2022-08-08T12:05:13.213Z,29.56
2022-08-08T12:07:50.999Z,29.19
2022-08-08T12:10:23.589Z,28.19
2022-08-08T12:13:01.457Z,28.86
2022-08-08T12:15:42.681Z,29.12
2022-08-08T12:18:24.310Z,29.33
2022-08-08T12:20:54.652Z,29.36
2022-08-08T12:23:43.752Z,29.23
2022-08-08T12:26:28.213Z,29.40
2022-08-08T12:29:02.843Z,27.92
2022-08-08T12:31:39.285Z,27.73
2022-08-08T12:34:21.177Z,27.38
2022-08-08T12:37:05.588Z,28.37
2022-08-08T12:39:56.198Z,28.83
2022-08-08T12:42:22.608Z,28.48
2022-08-08T12:45:54.602Z,28.57
2022-08-08T12:48:10.104Z,28.34
2022-08-08T12:50:57.629Z,28.06
2022-08-08T12:53:28.322Z,27.04
2022-08-08T12:56:19.891Z,28.17
2022-08-08T12:58:54.235Z,27.10
2022-08-08T13:01:34.965Z,25.70
2022-08-08T13:04:25.249Z,26.37
2022-08-08T13:06:58.795Z,25.86
2022-08-08T13:09:57.444Z,26.05
2022-08-08T13:12:29.192Z,25.96
2022-08-08T13:14:57.394Z,25.62
2022-08-08T13:17:54.069Z,24.96
2022-08-08T13:20:18.260Z,25.58
2022-08-08T13:22:46.037Z,26.34
2022-08-08T13:25:22.262Z,25.16
2022-08-08T13:27:54.460Z,23.66
2022-08-08T13:30:28.330Z,23.71
2022-08-08T13:32:57.288Z,23.95
2022-08-08T13:35:38.586Z,22.89
2022-08-08T13:38:13.295Z,23.14
2022-08-08T13:40:44.947Z,23.55
2022-08-08T13:43:16.474Z,23.06
2022-08-08T13:45:43.896Z,22.90
2022-08-08T13:48:16.671Z,22.85
2022-08-08T13:50:50.824Z,22.95
2022-08-08T13:53:34.273Z,22.76
2022-08-08T13:56:11.878Z,22.87
2022-08-08T13:58:56.498Z,22.54
2022-08-08T14:01:41.986Z,23.22
2022-08-08T14:04:22.191Z,22.33
2022-08-08T14:06:58.689Z,22.81
2022-08-08T14:10:02.380Z,22.70
2022-08-08T14:12:26.036Z,22.33
2022-08-08T14:14:54.785Z,21.54
2022-08-08T14:17:22.552Z,21.87
2022-08-08T14:20:09.941Z,21.90
2022-08-08T14:22:43.033Z,22.01
2022-08-08T14:25:15.552Z,22.56
2022-08-08T14:27:59.785Z,22.08
2022-08-08T14:30:34.295Z,22.10
2022-08-08T14:33:01.415Z,22.85
2022-08-08T14:35:35.880Z,22.10
2022-08-08T14:38:33.618Z,21.70
2022-08-08T14:40:59.463Z,21.75
2022-08-08T14:44:01.786Z,22.60
2022-08-08T14:46:19.382Z,22.27
2022-08-08T14:49:02.447Z,22.98
2022-08-08T14:51:52.091Z,22.63
2022-08-08T14:54:28.753Z,22.18
2022-08-08T14:56:56.143Z,22.56
2022-08-08T14:59:43.688Z,22.68
2022-08-08T15:02:10.198Z,22.94
2022-08-08T15:04:42.019Z,22.67
2022-08-08T15:07:22.726Z,22.70
2022-08-08T15:09:51.437Z,23.41
2022-08-08T15:12:34.693Z,23.54
2022-08-08T15:15:01.158Z,23.77
2022-08-08T15:17:33.596Z,24.16
2022-08-08T15:20:05.179Z,24.12
2022-08-08T15:22:35.496Z,24.80
2022-08-08T15:25:03.140Z,24.94
2022-08-08T15:28:04.140Z,24.82
2022-08-08T15:30:22.848Z,25.02
2022-08-08T15:32:49.656Z,26.06
2022-08-08T15:35:17.807Z,25.37
2022-08-08T15:37:47.806Z,25.75
2022-08-08T15:40:15.097Z,25.98
2022-08-08T15:42:47.622Z,26.16
2022-08-08T15:45:16.168Z,27.00
2022-08-08T15:48:11.132Z,26.77
2022-08-08T15:50:49.643Z,27.16
2022-08-08T15:53:17.711Z,27.88
2022-08-08T15:55:44.840Z,27.33
2022-08-08T15:58:13.716Z,27.63
2022-08-08T16:00:40.614Z,27.60
2022-08-08T16:03:16.832Z,27.76
2022-08-08T16:05:53.128Z,27.87
2022-08-08T16:08:28.113Z,28.03
2022-08-08T16:13:09.629Z,29.03
2022-08-08T16:13:45.159Z,29.04
2022-08-08T16:16:18.008Z,28.86
2022-08-08T16:18:53.439Z,29.07
2022-08-08T16:21:27.951Z,29.65
2022-08-08T16:23:56.515Z,29.56
2022-08-08T16:26:33.661Z,29.84
2022-08-08T16:29:03.317Z,30.18
2022-08-08T16:31:34.487Z,30.43
2022-08-08T16:34:03.649Z,31.13
2022-08-08T16:36:34.052Z,30.84
2022-08-08T16:39:09.379Z,30.91
2022-08-08T16:41:36.674Z,30.79
2022-08-08T16:44:04.008Z,31.48
2022-08-08T16:46:39.081Z,31.52
2022-08-08T16:49:10.669Z,31.60
2022-08-08T16:55:03.835Z,31.69
2022-08-08T16:55:23.957Z,31.78
2022-08-08T16:58:12.131Z,31.73
2022-08-08T17:00:00.900Z,32.37
2022-08-08T17:02:32.735Z,32.20
2022-08-08T17:05:08.427Z,32.36
2022-08-08T17:07:37.653Z,32.71
2022-08-08T17:10:08.881Z,33.14
2022-08-08T17:12:36.777Z,33.13
2022-08-08T17:15:17.599Z,33.33
2022-08-08T17:18:02.399Z,33.36
2022-08-08T17:20:30.846Z,33.45
2022-08-08T17:23:17.959Z,33.66
2022-08-08T17:25:52.453Z,33.40
2022-08-08T17:28:19.462Z,33.91
2022-08-08T17:31:01.741Z,34.00
2022-08-08T17:34:36.523Z,34.29
2022-08-08T17:36:29.142Z,35.35
2022-08-08T17:39:05.094Z,38.21
2022-08-08T17:41:48.411Z,39.04
2022-08-08T17:44:15.364Z,38.95
2022-08-08T17:46:45.092Z,39.03
2022-08-08T17:49:16.405Z,38.80
2022-08-08T17:51:52.094Z,37.68
2022-08-08T17:54:22.414Z,36.71
2022-08-08T17:56:53.867Z,38.23
2022-08-08T17:59:23.403Z,38.04
2022-08-08T18:02:04.440Z,37.64
2022-08-08T18:04:38.093Z,37.40
2022-08-08T18:08:03.574Z,37.60
2022-08-08T18:10:03.713Z,36.90
2022-08-08T18:12:30.564Z,38.13
2022-08-08T18:14:57.486Z,38.40
2022-08-08T18:18:04.799Z,39.72
2022-08-08T18:20:36.938Z,37.95
2022-08-08T18:23:00.391Z,38.29
2022-08-08T18:25:28.512Z,38.94
2022-08-08T18:28:04.499Z,39.14
2022-08-08T18:30:31.953Z,38.99
2022-08-08T18:32:58.499Z,39.00
2022-08-08T18:35:25.287Z,38.97
2022-08-08T18:38:03.903Z,39.82
2022-08-08T18:40:45.754Z,40.11
2022-08-08T18:43:14.942Z,41.04
2022-08-08T18:46:00.511Z,41.18
2022-08-08T18:48:30.994Z,40.27
2022-08-08T18:50:58.768Z,40.56
2022-08-08T18:54:00.161Z,40.94
2022-08-08T18:56:24.021Z,40.57
2022-08-08T18:58:50.849Z,40.75
2022-08-08T19:02:26.772Z,40.81
2022-08-08T19:04:10.247Z,41.51
2022-08-08T19:06:37.659Z,42.10
2022-08-08T19:09:13.239Z,41.78
2022-08-08T19:11:46.441Z,41.51
2022-08-08T19:14:20.266Z,42.08
2022-08-08T19:16:48.163Z,42.12
2022-08-08T19:19:15.118Z,42.08
2022-08-08T19:21:48.888Z,42.35
2022-08-08T19:24:42.467Z,42.12
2022-08-08T19:27:04.665Z,42.95
2022-08-08T19:29:34.496Z,43.85
2022-08-08T19:32:02.323Z,43.23
2022-08-08T19:34:29.911Z,43.30
2022-08-08T19:37:03.316Z,42.72
2022-08-08T19:39:35.592Z,42.99
2022-08-08T19:42:06.909Z,43.63
2022-08-08T19:44:42.891Z,44.23
2022-08-08T19:47:12.613Z,43.73
2022-08-08T19:49:39.441Z,44.03
2022-08-08T19:52:11.953Z,44.99
2022-08-08T19:54:40.073Z,46.97
2022-08-08T19:57:09.606Z,49.87
2022-08-08T19:59:39.126Z,51.17
2022-08-08T20:02:05.712Z,51.58
2022-08-08T20:04:36.021Z,50.70
2022-08-08T20:08:30.605Z,50.08
2022-08-08T20:09:55.925Z,50.68
2022-08-08T20:12:32.934Z,50.44
2022-08-08T20:15:14.404Z,49.22
2022-08-08T20:17:45.578Z,49.34
2022-08-08T20:20:18.856Z,48.93
2022-08-08T20:22:46.701Z,48.11
2022-08-08T20:25:20.489Z,49.41
2022-08-08T20:27:49.590Z,50.92
2022-08-08T20:30:38.916Z,49.97
2022-08-08T20:33:08.078Z,51.04
2022-08-08T20:35:59.455Z,50.05
2022-08-08T20:38:33.051Z,50.92
2022-08-08T20:41:12.197Z,50.92
2022-08-08T20:43:49.406Z,51.87
2022-08-08T20:46:17.390Z,51.81
2022-08-08T20:48:46.635Z,51.67
2022-08-08T20:51:14.314Z,51.46
2022-08-08T20:54:00.075Z,51.49
2022-08-08T20:56:35.202Z,51.61
2022-08-08T20:59:05.616Z,52.34
2022-08-08T21:01:44.165Z,52.47
2022-08-08T21:04:23.170Z,51.43
2022-08-08T21:06:53.268Z,52.43
2022-08-08T21:09:21.470Z,53.71
2022-08-08T21:11:51.430Z,52.91
2022-08-08T21:14:33.745Z,53.21
2022-08-08T21:17:06.515Z,53.93
2022-08-08T21:19:45.107Z,54.72
2022-08-08T21:22:13.909Z,54.11
2022-08-08T21:24:42.076Z,54.21
2022-08-08T21:28:06.028Z,54.33
2022-08-08T21:30:10.750Z,53.75
2022-08-08T21:32:45.703Z,53.96
2022-08-08T21:36:13.579Z,55.42
2022-08-08T21:38:05.645Z,54.63
2022-08-08T21:40:38.544Z,55.05
2022-08-08T21:43:07.712Z,55.17
2022-08-08T21:48:00.556Z,54.95
2022-08-08T21:48:35.413Z,55.28
2022-08-08T21:51:10.361Z,55.73
2022-08-08T21:54:35.470Z,56.17
2022-08-08T21:56:34.109Z,56.49
2022-08-08T21:59:05.658Z,56.13
2022-08-08T22:01:40.459Z,56.64
2022-08-08T22:04:10.572Z,56.48
2022-08-08T22:06:40.393Z,57.22
2022-08-08T22:09:08.987Z,57.61
2022-08-08T22:11:58.837Z,57.58
2022-08-08T22:14:26.687Z,58.11
2022-08-08T22:16:56.008Z,58.89
2022-08-08T22:19:23.609Z,59.22
2022-08-08T22:21:53.727Z,59.43
2022-08-08T22:24:28.238Z,59.81
2022-08-08T22:27:02.601Z,60.30
2022-08-08T22:29:58.718Z,60.70
2022-08-08T22:32:18.922Z,60.49
2022-08-08T22:34:51.307Z,60.90
2022-08-08T22:37:48.955Z,60.78
2022-08-08T22:40:16.654Z,61.78
2022-08-08T22:42:47.106Z,61.42
2022-08-08T22:45:14.549Z,62.06
2022-08-08T22:47:48.934Z,62.07
2022-08-08T22:50:27.336Z,61.98
2022-08-08T22:54:31.786Z,62.29
2022-08-08T22:55:58.454Z,62.66
2022-08-08T22:58:31.144Z,62.88
2022-08-08T23:00:59.994Z,63.72
2022-08-08T23:03:34.216Z,63.24
2022-08-08T23:06:16.147Z,63.44
2022-08-08T23:08:44.608Z,63.26
2022-08-08T23:11:21.469Z,63.75
2022-08-08T23:13:53.508Z,63.82
2022-08-08T23:16:37.895Z,63.82
2022-08-08T23:19:09.169Z,63.97
2022-08-08T23:21:35.930Z,63.99
2022-08-08T23:24:05.782Z,64.26
2022-08-08T23:26:33.987Z,64.33
2022-08-08T23:29:01.551Z,64.27
2022-08-08T23:31:28.058Z,64.22
2022-08-08T23:34:18.795Z,64.35
2022-08-08T23:36:40.977Z,64.61
2022-08-08T23:39:09.009Z,64.87
2022-08-08T23:41:41.622Z,64.76
2022-08-08T23:44:14.277Z,64.88
2022-08-08T23:48:59.925Z,65.07
2022-08-08T23:49:27.398Z,65.15
2022-08-08T23:52:06.035Z,65.33
2022-08-08T23:54:42.127Z,65.35
2022-08-08T23:57:26.678Z,65.62
